Bright Hope — HPTM — position and weather

sailwx.info

Track history (hours):
 
Tides and Currents Weather Stations Pressure Air Temp Water Temp Dewpoint Dewpoint Depression Visibility Wind Speed Wind Dir Waves Ship Positions

Bright Hope

Last reported at 2016-Sep-25 11:32 UTC. Time now 2016-Oct-01 12:10 UTC.
Position S 39°45' E 146°57'.

Length 170 m; draft 9.8 m.

Type: Cargo ship. MMSI: 371117000.

Date/timePositionNaut miles runAvg speedWind from/ knotsBaromVisibWave heightAir tempDewpointWater temp
2016-Sep-25 11:32S 39°45' E 146°57'1010.4
2016-Sep-25 10:33S 39°35' E 146°59'1110.5
2016-Sep-25 09:33S 39°24' E 147°00'2110.3
2016-Sep-25 07:33S 39°17' E 147°25'10810.5
2016-Sep-24 21:19S 38°16' E 149°19'1910.7
2016-Sep-24 19:33S 38°03' E 149°36'1110.9
2016-Sep-24 18:33S 37°56' E 149°47'1110.6
2016-Sep-24 17:33S 37°49' E 149°57'1110.8
2016-Sep-24 16:33S 37°42' E 150°07'2512.6
2016-Sep-24 14:33S 37°18' E 150°18'2512.7
2016-Sep-24 12:33S 36°54' E 150°27'2512.4
2016-Sep-24 10:33S 36°30' E 150°36'1312.6
2016-Sep-24 09:33S 36°18' E 150°40'21610.8
2016-Sep-23 13:34S 32°59' E 152°21'28 7.0
2016-Sep-23 09:33S 32°35' E 152°39'32810.9
2016-Sep-22 03:32S 27°11' E 153°42'  
Track history (hours):
 
Tides and Currents Weather Stations Pressure Air Temp Water Temp Dewpoint Dewpoint Depression Visibility Wind Speed Wind Dir Waves Ship Positions

Bright Hope

Last reported at 2016-Sep-25 11:32 UTC. Time now 2016-Oct-01 12:10 UTC.
Position S 39°45' E 146°57'.

Length 170 m; draft 9.8 m.

Type: Cargo ship. MMSI: 371117000.

Date/timePositionNaut miles runAvg speedWind from/ knotsBaromVisibWave heightAir tempDewpointWater temp
2016-Sep-25 11:32S 39°45' E 146°57'1010.4
2016-Sep-25 10:33S 39°35' E 146°59'1110.5
2016-Sep-25 09:33S 39°24' E 147°00'2110.3
2016-Sep-25 07:33S 39°17' E 147°25'10810.5
2016-Sep-24 21:19S 38°16' E 149°19'1910.7
2016-Sep-24 19:33S 38°03' E 149°36'1110.9
2016-Sep-24 18:33S 37°56' E 149°47'1110.6
2016-Sep-24 17:33S 37°49' E 149°57'1110.8
2016-Sep-24 16:33S 37°42' E 150°07'2512.6
2016-Sep-24 14:33S 37°18' E 150°18'2512.7
2016-Sep-24 12:33S 36°54' E 150°27'2512.4
2016-Sep-24 10:33S 36°30' E 150°36'1312.6
2016-Sep-24 09:33S 36°18' E 150°40'21610.8
2016-Sep-23 13:34S 32°59' E 152°21'28 7.0
2016-Sep-23 09:33S 32°35' E 152°39'32810.9
2016-Sep-22 03:32S 27°11' E 153°42'  

Dump ship's entire track history